sensor_id;sensor_type;location;lat;lon;timestamp;temperature;humidity
10538;DHT22;5317;49.048;8.468;2022-11-03T00:01:30;12.90;71.10
10538;DHT22;5317;49.048;8.468;2022-11-03T00:03:58;12.90;70.70
10538;DHT22;5317;49.048;8.468;2022-11-03T00:06:27;12.90;70.90
10538;DHT22;5317;49.048;8.468;2022-11-03T00:08:57;12.90;70.70
10538;DHT22;5317;49.048;8.468;2022-11-03T00:11:25;12.90;70.70
10538;DHT22;5317;49.048;8.468;2022-11-03T00:13:52;12.90;70.70
10538;DHT22;5317;49.048;8.468;2022-11-03T00:16:19;12.80;70.30
10538;DHT22;5317;49.048;8.468;2022-11-03T00:18:47;12.80;70.10
10538;DHT22;5317;49.048;8.468;2022-11-03T00:21:14;12.70;70.10
10538;DHT22;5317;49.048;8.468;2022-11-03T00:23:43;12.70;70.10
10538;DHT22;5317;49.048;8.468;2022-11-03T00:26:12;12.70;70.20
10538;DHT22;5317;49.048;8.468;2022-11-03T00:28:43;12.70;70.20
10538;DHT22;5317;49.048;8.468;2022-11-03T00:31:13;12.60;70.30
10538;DHT22;5317;49.048;8.468;2022-11-03T00:33:42;12.60;70.30
10538;DHT22;5317;49.048;8.468;2022-11-03T00:36:12;12.60;70.30
10538;DHT22;5317;49.048;8.468;2022-11-03T00:38:41;12.50;70.30
10538;DHT22;5317;49.048;8.468;2022-11-03T00:41:10;12.50;70.30
10538;DHT22;5317;49.048;8.468;2022-11-03T00:43:38;12.50;70.50
10538;DHT22;5317;49.048;8.468;2022-11-03T00:46:07;12.50;70.30
10538;DHT22;5317;49.048;8.468;2022-11-03T00:48:36;12.50;70.10
10538;DHT22;5317;49.048;8.468;2022-11-03T00:51:06;12.40;70.40
10538;DHT22;5317;49.048;8.468;2022-11-03T00:53:37;12.40;70.40
10538;DHT22;5317;49.048;8.468;2022-11-03T00:56:09;12.40;70.40
10538;DHT22;5317;49.048;8.468;2022-11-03T00:58:38;12.40;70.40
10538;DHT22;5317;49.048;8.468;2022-11-03T01:01:09;12.30;70.00
10538;DHT22;5317;49.048;8.468;2022-11-03T01:03:39;12.30;70.00
10538;DHT22;5317;49.048;8.468;2022-11-03T01:06:28;12.30;70.20
10538;DHT22;5317;49.048;8.468;2022-11-03T01:09:14;12.20;70.30
10538;DHT22;5317;49.048;8.468;2022-11-03T01:11:50;12.20;70.20
10538;DHT22;5317;49.048;8.468;2022-11-03T01:14:22;12.10;70.30
10538;DHT22;5317;49.048;8.468;2022-11-03T01:17:21;12.20;70.50
10538;DHT22;5317;49.048;8.468;2022-11-03T01:19:50;12.10;70.80
10538;DHT22;5317;49.048;8.468;2022-11-03T01:22:18;12.10;70.60
10538;DHT22;5317;49.048;8.468;2022-11-03T01:24:46;12.00;70.30
10538;DHT22;5317;49.048;8.468;2022-11-03T01:27:16;12.00;70.20
10538;DHT22;5317;49.048;8.468;2022-11-03T01:29:44;12.00;70.30
10538;DHT22;5317;49.048;8.468;2022-11-03T01:32:12;12.00;70.30
10538;DHT22;5317;49.048;8.468;2022-11-03T01:34:39;11.90;71.10
10538;DHT22;5317;49.048;8.468;2022-11-03T01:37:07;11.90;70.20
10538;DHT22;5317;49.048;8.468;2022-11-03T01:39:34;11.90;70.20
10538;DHT22;5317;49.048;8.468;2022-11-03T01:42:02;11.90;70.20
10538;DHT22;5317;49.048;8.468;2022-11-03T01:44:33;11.80;70.10
10538;DHT22;5317;49.048;8.468;2022-11-03T01:47:18;11.80;70.30
10538;DHT22;5317;49.048;8.468;2022-11-03T01:49:53;11.80;70.50
10538;DHT22;5317;49.048;8.468;2022-11-03T01:52:28;11.80;70.40
10538;DHT22;5317;49.048;8.468;2022-11-03T01:55:04;11.70;70.40
10538;DHT22;5317;49.048;8.468;2022-11-03T01:57:37;11.70;70.50
10538;DHT22;5317;49.048;8.468;2022-11-03T02:00:12;11.70;70.40
10538;DHT22;5317;49.048;8.468;2022-11-03T02:02:41;11.70;70.40
10538;DHT22;5317;49.048;8.468;2022-11-03T02:05:10;11.70;71.30
10538;DHT22;5317;49.048;8.468;2022-11-03T02:07:43;11.70;70.70
10538;DHT22;5317;49.048;8.468;2022-11-03T02:10:16;11.70;70.80
10538;DHT22;5317;49.048;8.468;2022-11-03T02:12:43;11.60;70.70
10538;DHT22;5317;49.048;8.468;2022-11-03T02:15:14;11.60;70.50
10538;DHT22;5317;49.048;8.468;2022-11-03T02:17:45;11.60;70.60
10538;DHT22;5317;49.048;8.468;2022-11-03T02:20:18;11.60;70.30
10538;DHT22;5317;49.048;8.468;2022-11-03T02:23:06;11.50;70.30
10538;DHT22;5317;49.048;8.468;2022-11-03T02:25:49;11.60;70.40
10538;DHT22;5317;49.048;8.468;2022-11-03T02:28:20;11.50;70.80
10538;DHT22;5317;49.048;8.468;2022-11-03T02:30:57;11.50;70.00
10538;DHT22;5317;49.048;8.468;2022-11-03T02:33:47;11.50;70.10
10538;DHT22;5317;49.048;8.468;2022-11-03T02:36:22;11.50;70.10
10538;DHT22;5317;49.048;8.468;2022-11-03T02:38:56;11.40;70.00
10538;DHT22;5317;49.048;8.468;2022-11-03T02:41:32;11.40;70.20
10538;DHT22;5317;49.048;8.468;2022-11-03T02:44:03;11.40;70.40
10538;DHT22;5317;49.048;8.468;2022-11-03T02:46:37;11.40;70.50
10538;DHT22;5317;49.048;8.468;2022-11-03T02:49:08;11.30;70.40
10538;DHT22;5317;49.048;8.468;2022-11-03T02:51:35;11.30;70.50
10538;DHT22;5317;49.048;8.468;2022-11-03T02:54:06;11.20;70.80
10538;DHT22;5317;49.048;8.468;2022-11-03T02:56:45;11.20;70.80
10538;DHT22;5317;49.048;8.468;2022-11-03T02:59:17;11.20;70.70
10538;DHT22;5317;49.048;8.468;2022-11-03T03:01:52;11.20;70.50
10538;DHT22;5317;49.048;8.468;2022-11-03T03:04:33;11.20;70.60
10538;DHT22;5317;49.048;8.468;2022-11-03T03:07:07;11.20;70.40
10538;DHT22;5317;49.048;8.468;2022-11-03T03:09:42;11.20;70.30
10538;DHT22;5317;49.048;8.468;2022-11-03T03:12:15;11.10;70.10
10538;DHT22;5317;49.048;8.468;2022-11-03T03:14:46;11.10;70.10
10538;DHT22;5317;49.048;8.468;2022-11-03T03:17:22;11.20;70.20
10538;DHT22;5317;49.048;8.468;2022-11-03T03:19:58;11.10;70.20
10538;DHT22;5317;49.048;8.468;2022-11-03T03:22:33;11.10;70.10
10538;DHT22;5317;49.048;8.468;2022-11-03T03:25:12;11.00;70.30
10538;DHT22;5317;49.048;8.468;2022-11-03T03:27:48;11.00;70.50
10538;DHT22;5317;49.048;8.468;2022-11-03T03:30:21;11.00;70.70
10538;DHT22;5317;49.048;8.468;2022-11-03T03:32:49;10.90;70.80
10538;DHT22;5317;49.048;8.468;2022-11-03T03:35:20;10.90;70.70
10538;DHT22;5317;49.048;8.468;2022-11-03T03:37:53;10.80;70.60
10538;DHT22;5317;49.048;8.468;2022-11-03T03:40:28;10.90;70.70
10538;DHT22;5317;49.048;8.468;2022-11-03T03:43:00;10.80;70.50
10538;DHT22;5317;49.048;8.468;2022-11-03T03:45:30;10.80;70.60
10538;DHT22;5317;49.048;8.468;2022-11-03T03:48:00;10.80;70.60
10538;DHT22;5317;49.048;8.468;2022-11-03T03:50:32;10.80;70.60
10538;DHT22;5317;49.048;8.468;2022-11-03T03:53:05;10.80;70.70
10538;DHT22;5317;49.048;8.468;2022-11-03T03:55:37;10.80;70.80
10538;DHT22;5317;49.048;8.468;2022-11-03T03:58:11;10.80;70.90
10538;DHT22;5317;49.048;8.468;2022-11-03T04:00:40;10.90;71.10
10538;DHT22;5317;49.048;8.468;2022-11-03T04:03:13;10.90;71.00
10538;DHT22;5317;49.048;8.468;2022-11-03T04:05:43;10.90;71.10
10538;DHT22;5317;49.048;8.468;2022-11-03T04:08:12;10.80;70.90
10538;DHT22;5317;49.048;8.468;2022-11-03T04:10:40;10.80;70.90
10538;DHT22;5317;49.048;8.468;2022-11-03T04:13:29;10.90;71.70
10538;DHT22;5317;49.048;8.468;2022-11-03T04:16:14;10.80;70.70
10538;DHT22;5317;49.048;8.468;2022-11-03T04:18:59;10.80;70.90
10538;DHT22;5317;49.048;8.468;2022-11-03T04:21:44;10.80;70.90
10538;DHT22;5317;49.048;8.468;2022-11-03T04:24:34;10.80;71.00
10538;DHT22;5317;49.048;8.468;2022-11-03T04:27:11;10.80;71.10
10538;DHT22;5317;49.048;8.468;2022-11-03T04:30:05;10.80;71.10
10538;DHT22;5317;49.048;8.468;2022-11-03T04:32:36;10.70;71.50
10538;DHT22;5317;49.048;8.468;2022-11-03T04:35:14;10.80;70.70
10538;DHT22;5317;49.048;8.468;2022-11-03T04:37:43;10.70;70.70
10538;DHT22;5317;49.048;8.468;2022-11-03T04:40:14;10.70;70.50
10538;DHT22;5317;49.048;8.468;2022-11-03T04:42:43;10.70;70.60
10538;DHT22;5317;49.048;8.468;2022-11-03T04:45:22;10.70;70.50
10538;DHT22;5317;49.048;8.468;2022-11-03T04:47:52;10.70;70.60
10538;DHT22;5317;49.048;8.468;2022-11-03T04:50:21;10.70;70.40
10538;DHT22;5317;49.048;8.468;2022-11-03T04:52:53;10.70;70.50
10538;DHT22;5317;49.048;8.468;2022-11-03T04:55:22;10.70;70.90
10538;DHT22;5317;49.048;8.468;2022-11-03T04:57:53;10.70;70.70
10538;DHT22;5317;49.048;8.468;2022-11-03T05:00:25;10.60;70.80
10538;DHT22;5317;49.048;8.468;2022-11-03T05:02:52;10.60;70.60
10538;DHT22;5317;49.048;8.468;2022-11-03T05:05:20;10.60;70.70
10538;DHT22;5317;49.048;8.468;2022-11-03T05:07:50;10.60;70.70
10538;DHT22;5317;49.048;8.468;2022-11-03T05:10:24;10.50;70.60
10538;DHT22;5317;49.048;8.468;2022-11-03T05:12:53;10.50;70.60
10538;DHT22;5317;49.048;8.468;2022-11-03T05:15:34;10.50;70.60
10538;DHT22;5317;49.048;8.468;2022-11-03T05:18:15;10.50;70.60
10538;DHT22;5317;49.048;8.468;2022-11-03T05:20:49;10.50;70.80
10538;DHT22;5317;49.048;8.468;2022-11-03T05:23:21;10.50;70.80
10538;DHT22;5317;49.048;8.468;2022-11-03T05:25:52;10.40;70.70
10538;DHT22;5317;49.048;8.468;2022-11-03T05:28:24;10.40;70.50
10538;DHT22;5317;49.048;8.468;2022-11-03T05:30:56;10.40;70.70
10538;DHT22;5317;49.048;8.468;2022-11-03T05:33:26;10.40;71.00
10538;DHT22;5317;49.048;8.468;2022-11-03T05:35:57;10.40;70.90
10538;DHT22;5317;49.048;8.468;2022-11-03T05:38:29;10.40;71.00
10538;DHT22;5317;49.048;8.468;2022-11-03T05:40:59;10.40;71.30
10538;DHT22;5317;49.048;8.468;2022-11-03T05:43:27;10.40;71.30
10538;DHT22;5317;49.048;8.468;2022-11-03T05:45:58;10.40;71.40
10538;DHT22;5317;49.048;8.468;2022-11-03T05:48:33;10.40;71.60
10538;DHT22;5317;49.048;8.468;2022-11-03T05:51:13;10.40;71.30
10538;DHT22;5317;49.048;8.468;2022-11-03T05:53:44;10.40;71.30
10538;DHT22;5317;49.048;8.468;2022-11-03T05:56:17;10.40;71.20
10538;DHT22;5317;49.048;8.468;2022-11-03T05:58:47;10.40;71.30
10538;DHT22;5317;49.048;8.468;2022-11-03T06:01:19;10.40;71.20
10538;DHT22;5317;49.048;8.468;2022-11-03T06:03:51;10.40;71.20
10538;DHT22;5317;49.048;8.468;2022-11-03T06:06:21;10.40;71.20
10538;DHT22;5317;49.048;8.468;2022-11-03T06:08:51;10.40;71.80
10538;DHT22;5317;49.048;8.468;2022-11-03T06:11:26;10.40;71.70
10538;DHT22;5317;49.048;8.468;2022-11-03T06:13:57;10.40;71.70
10538;DHT22;5317;49.048;8.468;2022-11-03T06:16:36;10.40;71.80
10538;DHT22;5317;49.048;8.468;2022-11-03T06:19:20;10.40;72.10
10538;DHT22;5317;49.048;8.468;2022-11-03T06:21:53;10.40;72.10
10538;DHT22;5317;49.048;8.468;2022-11-03T06:24:25;10.40;72.20
10538;DHT22;5317;49.048;8.468;2022-11-03T06:26:57;10.40;72.40
10538;DHT22;5317;49.048;8.468;2022-11-03T06:29:24;10.40;72.20
10538;DHT22;5317;49.048;8.468;2022-11-03T06:31:55;10.40;72.30
10538;DHT22;5317;49.048;8.468;2022-11-03T06:34:36;10.40;72.30
10538;DHT22;5317;49.048;8.468;2022-11-03T06:37:17;10.50;72.40
10538;DHT22;5317;49.048;8.468;2022-11-03T06:39:47;10.50;72.30
10538;DHT22;5317;49.048;8.468;2022-11-03T06:42:19;10.50;72.40
10538;DHT22;5317;49.048;8.468;2022-11-03T06:44:49;10.60;73.40
10538;DHT22;5317;49.048;8.468;2022-11-03T06:47:22;10.60;72.70
10538;DHT22;5317;49.048;8.468;2022-11-03T06:49:52;10.60;72.70
10538;DHT22;5317;49.048;8.468;2022-11-03T06:52:29;10.70;73.00
10538;DHT22;5317;49.048;8.468;2022-11-03T06:55:25;10.60;73.00
10538;DHT22;5317;49.048;8.468;2022-11-03T06:57:58;10.60;73.00
10538;DHT22;5317;49.048;8.468;2022-11-03T07:00:30;10.70;73.10
10538;DHT22;5317;49.048;8.468;2022-11-03T07:03:04;10.70;73.00
10538;DHT22;5317;49.048;8.468;2022-11-03T07:05:34;10.70;73.00
10538;DHT22;5317;49.048;8.468;2022-11-03T07:08:16;10.80;73.20
10538;DHT22;5317;49.048;8.468;2022-11-03T07:10:50;10.90;74.10
10538;DHT22;5317;49.048;8.468;2022-11-03T07:13:26;10.90;73.30
10538;DHT22;5317;49.048;8.468;2022-11-03T07:15:57;11.00;73.40
10538;DHT22;5317;49.048;8.468;2022-11-03T07:18:28;11.00;73.40
10538;DHT22;5317;49.048;8.468;2022-11-03T07:21:04;11.00;73.40
10538;DHT22;5317;49.048;8.468;2022-11-03T07:23:33;11.10;73.60
10538;DHT22;5317;49.048;8.468;2022-11-03T07:26:00;11.20;73.60
10538;DHT22;5317;49.048;8.468;2022-11-03T07:28:31;11.20;73.90
10538;DHT22;5317;49.048;8.468;2022-11-03T07:31:11;11.30;74.40
10538;DHT22;5317;49.048;8.468;2022-11-03T07:33:43;11.40;74.70
10538;DHT22;5317;49.048;8.468;2022-11-03T07:36:15;11.40;74.40
10538;DHT22;5317;49.048;8.468;2022-11-03T07:38:47;11.50;74.60
10538;DHT22;5317;49.048;8.468;2022-11-03T07:41:19;11.50;74.70
10538;DHT22;5317;49.048;8.468;2022-11-03T07:43:52;11.50;74.90
10538;DHT22;5317;49.048;8.468;2022-11-03T07:46:21;11.50;74.80
10538;DHT22;5317;49.048;8.468;2022-11-03T07:48:54;11.50;75.00
10538;DHT22;5317;49.048;8.468;2022-11-03T07:51:25;11.60;75.00
10538;DHT22;5317;49.048;8.468;2022-11-03T07:53:56;11.60;75.00
10538;DHT22;5317;49.048;8.468;2022-11-03T07:56:33;11.80;75.10
10538;DHT22;5317;49.048;8.468;2022-11-03T07:59:17;11.90;74.80
10538;DHT22;5317;49.048;8.468;2022-11-03T08:01:48;12.00;75.00
10538;DHT22;5317;49.048;8.468;2022-11-03T08:04:20;12.00;74.60
10538;DHT22;5317;49.048;8.468;2022-11-03T08:06:50;12.10;74.60
10538;DHT22;5317;49.048;8.468;2022-11-03T08:09:19;12.20;74.70
10538;DHT22;5317;49.048;8.468;2022-11-03T08:11:47;12.30;74.80
10538;DHT22;5317;49.048;8.468;2022-11-03T08:14:14;12.30;74.80
10538;DHT22;5317;49.048;8.468;2022-11-03T08:16:42;12.50;74.90
10538;DHT22;5317;49.048;8.468;2022-11-03T08:19:09;12.50;74.30
10538;DHT22;5317;49.048;8.468;2022-11-03T08:21:47;12.60;74.40
10538;DHT22;5317;49.048;8.468;2022-11-03T08:24:14;12.60;74.00
10538;DHT22;5317;49.048;8.468;2022-11-03T08:26:44;12.70;73.80
10538;DHT22;5317;49.048;8.468;2022-11-03T08:29:14;12.80;73.80
10538;DHT22;5317;49.048;8.468;2022-11-03T08:31:42;12.80;73.80
10538;DHT22;5317;49.048;8.468;2022-11-03T08:34:09;12.90;74.10
10538;DHT22;5317;49.048;8.468;2022-11-03T08:36:38;13.00;73.90
10538;DHT22;5317;49.048;8.468;2022-11-03T08:39:05;13.10;73.90
10538;DHT22;5317;49.048;8.468;2022-11-03T08:41:32;13.20;73.80
10538;DHT22;5317;49.048;8.468;2022-11-03T08:43:59;13.30;73.90
10538;DHT22;5317;49.048;8.468;2022-11-03T08:46:26;13.40;73.90
10538;DHT22;5317;49.048;8.468;2022-11-03T08:48:54;13.60;74.00
10538;DHT22;5317;49.048;8.468;2022-11-03T08:51:21;13.70;73.80
10538;DHT22;5317;49.048;8.468;2022-11-03T08:53:50;13.90;73.60
10538;DHT22;5317;49.048;8.468;2022-11-03T08:56:18;13.90;73.50
10538;DHT22;5317;49.048;8.468;2022-11-03T08:58:47;14.00;73.00
10538;DHT22;5317;49.048;8.468;2022-11-03T09:01:14;14.00;72.80
10538;DHT22;5317;49.048;8.468;2022-11-03T09:03:42;14.10;72.50
10538;DHT22;5317;49.048;8.468;2022-11-03T09:06:09;14.10;72.20
10538;DHT22;5317;49.048;8.468;2022-11-03T09:08:36;14.10;72.60
10538;DHT22;5317;49.048;8.468;2022-11-03T09:11:05;14.20;72.70
10538;DHT22;5317;49.048;8.468;2022-11-03T09:13:32;14.30;72.50
10538;DHT22;5317;49.048;8.468;2022-11-03T09:15:59;14.40;72.00
10538;DHT22;5317;49.048;8.468;2022-11-03T09:18:26;14.50;71.90
10538;DHT22;5317;49.048;8.468;2022-11-03T09:20:53;14.50;71.70
10538;DHT22;5317;49.048;8.468;2022-11-03T09:23:21;14.60;71.50
10538;DHT22;5317;49.048;8.468;2022-11-03T09:25:48;14.70;71.40
10538;DHT22;5317;49.048;8.468;2022-11-03T09:28:16;14.70;72.20
10538;DHT22;5317;49.048;8.468;2022-11-03T09:30:43;14.80;71.80
10538;DHT22;5317;49.048;8.468;2022-11-03T09:33:11;14.90;72.20
10538;DHT22;5317;49.048;8.468;2022-11-03T09:35:38;15.00;71.90
10538;DHT22;5317;49.048;8.468;2022-11-03T09:38:05;15.00;72.00
10538;DHT22;5317;49.048;8.468;2022-11-03T09:40:33;15.10;72.40
10538;DHT22;5317;49.048;8.468;2022-11-03T09:43:02;15.10;72.50
10538;DHT22;5317;49.048;8.468;2022-11-03T09:45:31;15.20;72.00
10538;DHT22;5317;49.048;8.468;2022-11-03T09:47:58;15.20;71.60
10538;DHT22;5317;49.048;8.468;2022-11-03T09:50:26;15.20;71.70
10538;DHT22;5317;49.048;8.468;2022-11-03T09:52:53;15.20;71.70
10538;DHT22;5317;49.048;8.468;2022-11-03T09:55:24;15.30;71.70
10538;DHT22;5317;49.048;8.468;2022-11-03T09:57:53;15.30;71.60
10538;DHT22;5317;49.048;8.468;2022-11-03T10:00:23;15.30;71.50
10538;DHT22;5317;49.048;8.468;2022-11-03T10:02:53;15.40;71.50
10538;DHT22;5317;49.048;8.468;2022-11-03T10:05:23;15.40;71.40
10538;DHT22;5317;49.048;8.468;2022-11-03T10:07:51;15.40;71.30
10538;DHT22;5317;49.048;8.468;2022-11-03T10:10:24;15.50;71.40
10538;DHT22;5317;49.048;8.468;2022-11-03T10:12:52;15.50;71.40
10538;DHT22;5317;49.048;8.468;2022-11-03T10:15:21;15.50;71.10
10538;DHT22;5317;49.048;8.468;2022-11-03T10:17:52;15.50;70.60
10538;DHT22;5317;49.048;8.468;2022-11-03T10:20:21;15.50;70.10
10538;DHT22;5317;49.048;8.468;2022-11-03T10:22:51;15.60;70.20
10538;DHT22;5317;49.048;8.468;2022-11-03T10:25:33;15.60;69.90
10538;DHT22;5317;49.048;8.468;2022-11-03T10:28:13;15.70;70.10
10538;DHT22;5317;49.048;8.468;2022-11-03T10:30:51;15.70;70.20
10538;DHT22;5317;49.048;8.468;2022-11-03T10:33:28;15.80;70.10
10538;DHT22;5317;49.048;8.468;2022-11-03T10:35:57;15.80;70.00
10538;DHT22;5317;49.048;8.468;2022-11-03T10:38:27;15.90;69.90
10538;DHT22;5317;49.048;8.468;2022-11-03T10:41:08;15.90;70.80
10538;DHT22;5317;49.048;8.468;2022-11-03T10:43:37;16.00;70.00
10538;DHT22;5317;49.048;8.468;2022-11-03T10:46:11;16.00;69.60
10538;DHT22;5317;49.048;8.468;2022-11-03T10:48:43;16.00;69.20
10538;DHT22;5317;49.048;8.468;2022-11-03T10:51:11;16.10;69.70
10538;DHT22;5317;49.048;8.468;2022-11-03T10:53:40;16.10;69.80
10538;DHT22;5317;49.048;8.468;2022-11-03T10:56:08;16.10;70.10
10538;DHT22;5317;49.048;8.468;2022-11-03T10:58:35;16.10;69.70
10538;DHT22;5317;49.048;8.468;2022-11-03T11:01:04;16.10;69.80
10538;DHT22;5317;49.048;8.468;2022-11-03T11:03:33;16.20;70.00
10538;DHT22;5317;49.048;8.468;2022-11-03T11:06:17;16.20;70.00
10538;DHT22;5317;49.048;8.468;2022-11-03T11:08:45;16.20;69.60
10538;DHT22;5317;49.048;8.468;2022-11-03T11:11:14;16.30;69.40
10538;DHT22;5317;49.048;8.468;2022-11-03T11:13:43;16.30;69.40
10538;DHT22;5317;49.048;8.468;2022-11-03T11:16:46;16.30;69.40
10538;DHT22;5317;49.048;8.468;2022-11-03T11:19:15;16.40;69.20
10538;DHT22;5317;49.048;8.468;2022-11-03T11:21:58;16.50;69.00
10538;DHT22;5317;49.048;8.468;2022-11-03T11:24:58;16.50;68.30
10538;DHT22;5317;49.048;8.468;2022-11-03T11:30:58;16.70;68.60
10538;DHT22;5317;49.048;8.468;2022-11-03T11:33:26;16.70;68.30
10538;DHT22;5317;49.048;8.468;2022-11-03T11:36:20;16.60;68.50
10538;DHT22;5317;49.048;8.468;2022-11-03T11:39:00;16.50;68.70
10538;DHT22;5317;49.048;8.468;2022-11-03T11:42:06;16.50;68.70
10538;DHT22;5317;49.048;8.468;2022-11-03T11:47:47;16.50;67.80
10538;DHT22;5317;49.048;8.468;2022-11-03T11:50:30;16.50;68.70
10538;DHT22;5317;49.048;8.468;2022-11-03T11:55:50;16.50;68.40
10538;DHT22;5317;49.048;8.468;2022-11-03T11:58:24;16.50;68.70
10538;DHT22;5317;49.048;8.468;2022-11-03T12:00:59;16.50;68.20
10538;DHT22;5317;49.048;8.468;2022-11-03T12:03:31;16.40;68.00
10538;DHT22;5317;49.048;8.468;2022-11-03T12:06:03;16.30;68.60
10538;DHT22;5317;49.048;8.468;2022-11-03T12:08:32;16.40;69.20
10538;DHT22;5317;49.048;8.468;2022-11-03T12:11:02;16.40;69.50
10538;DHT22;5317;49.048;8.468;2022-11-03T12:13:39;16.40;69.80
10538;DHT22;5317;49.048;8.468;2022-11-03T12:16:09;16.50;69.70
10538;DHT22;5317;49.048;8.468;2022-11-03T12:18:53;16.50;69.80
10538;DHT22;5317;49.048;8.468;2022-11-03T12:21:46;16.50;69.90
10538;DHT22;5317;49.048;8.468;2022-11-03T12:24:38;16.50;70.40
10538;DHT22;5317;49.048;8.468;2022-11-03T12:30:13;16.50;70.90
10538;DHT22;5317;49.048;8.468;2022-11-03T12:32:43;16.50;70.00
10538;DHT22;5317;49.048;8.468;2022-11-03T12:35:12;16.50;70.10
10538;DHT22;5317;49.048;8.468;2022-11-03T12:37:39;16.50;70.00
10538;DHT22;5317;49.048;8.468;2022-11-03T12:40:10;16.50;70.10
10538;DHT22;5317;49.048;8.468;2022-11-03T12:42:39;16.50;70.40
10538;DHT22;5317;49.048;8.468;2022-11-03T12:45:08;16.50;70.20
10538;DHT22;5317;49.048;8.468;2022-11-03T12:47:38;16.50;70.30
10538;DHT22;5317;49.048;8.468;2022-11-03T12:50:07;16.50;70.40
10538;DHT22;5317;49.048;8.468;2022-11-03T12:52:34;16.50;70.20
10538;DHT22;5317;49.048;8.468;2022-11-03T12:55:02;16.50;70.50
10538;DHT22;5317;49.048;8.468;2022-11-03T12:57:29;16.50;70.80
10538;DHT22;5317;49.048;8.468;2022-11-03T12:59:58;16.50;70.90
10538;DHT22;5317;49.048;8.468;2022-11-03T13:02:25;16.40;70.80
10538;DHT22;5317;49.048;8.468;2022-11-03T13:04:52;16.50;71.00
10538;DHT22;5317;49.048;8.468;2022-11-03T13:07:20;16.50;71.00
10538;DHT22;5317;49.048;8.468;2022-11-03T13:09:47;16.50;71.10
10538;DHT22;5317;49.048;8.468;2022-11-03T13:12:14;16.50;71.00
10538;DHT22;5317;49.048;8.468;2022-11-03T13:15:00;16.50;71.00
10538;DHT22;5317;49.048;8.468;2022-11-03T13:17:30;16.50;71.20
10538;DHT22;5317;49.048;8.468;2022-11-03T13:19:58;16.50;71.10
10538;DHT22;5317;49.048;8.468;2022-11-03T13:22:25;16.50;71.20
10538;DHT22;5317;49.048;8.468;2022-11-03T13:24:54;16.60;71.60
10538;DHT22;5317;49.048;8.468;2022-11-03T13:27:22;16.60;71.90
10538;DHT22;5317;49.048;8.468;2022-11-03T13:29:49;16.70;72.10
10538;DHT22;5317;49.048;8.468;2022-11-03T13:32:18;16.70;72.00
10538;DHT22;5317;49.048;8.468;2022-11-03T13:34:45;16.70;72.50
10538;DHT22;5317;49.048;8.468;2022-11-03T13:37:12;16.80;72.50
10538;DHT22;5317;49.048;8.468;2022-11-03T13:39:40;16.80;72.50
10538;DHT22;5317;49.048;8.468;2022-11-03T13:42:07;16.80;72.60
10538;DHT22;5317;49.048;8.468;2022-11-03T13:44:35;16.70;72.40
10538;DHT22;5317;49.048;8.468;2022-11-03T13:47:02;16.70;72.40
10538;DHT22;5317;49.048;8.468;2022-11-03T13:49:31;16.70;72.50
10538;DHT22;5317;49.048;8.468;2022-11-03T13:51:58;16.70;72.70
10538;DHT22;5317;49.048;8.468;2022-11-03T13:54:27;16.60;72.50
10538;DHT22;5317;49.048;8.468;2022-11-03T13:56:54;16.60;72.60
10538;DHT22;5317;49.048;8.468;2022-11-03T13:59:22;16.60;72.50
10538;DHT22;5317;49.048;8.468;2022-11-03T14:01:49;16.70;72.70
10538;DHT22;5317;49.048;8.468;2022-11-03T14:04:16;16.80;72.60
10538;DHT22;5317;49.048;8.468;2022-11-03T14:06:44;16.90;72.50
10538;DHT22;5317;49.048;8.468;2022-11-03T14:09:12;17.00;72.40
10538;DHT22;5317;49.048;8.468;2022-11-03T14:11:42;17.00;72.20
10538;DHT22;5317;49.048;8.468;2022-11-03T14:14:26;17.00;72.20
10538;DHT22;5317;49.048;8.468;2022-11-03T14:16:53;17.00;72.20
10538;DHT22;5317;49.048;8.468;2022-11-03T14:19:20;17.00;72.60
10538;DHT22;5317;49.048;8.468;2022-11-03T14:21:49;17.00;72.60
10538;DHT22;5317;49.048;8.468;2022-11-03T14:24:17;17.00;72.70
10538;DHT22;5317;49.048;8.468;2022-11-03T14:26:44;17.00;73.50
10538;DHT22;5317;49.048;8.468;2022-11-03T14:29:11;17.10;72.70
10538;DHT22;5317;49.048;8.468;2022-11-03T14:31:38;17.10;73.20
10538;DHT22;5317;49.048;8.468;2022-11-03T14:34:06;17.10;73.20
10538;DHT22;5317;49.048;8.468;2022-11-03T14:36:33;17.10;73.30
10538;DHT22;5317;49.048;8.468;2022-11-03T14:39:03;17.00;73.50
10538;DHT22;5317;49.048;8.468;2022-11-03T14:41:30;17.00;73.50
10538;DHT22;5317;49.048;8.468;2022-11-03T14:44:14;17.00;73.50
10538;DHT22;5317;49.048;8.468;2022-11-03T14:46:42;17.00;73.60
10538;DHT22;5317;49.048;8.468;2022-11-03T14:49:09;17.10;73.70
10538;DHT22;5317;49.048;8.468;2022-11-03T14:51:36;17.10;73.80
10538;DHT22;5317;49.048;8.468;2022-11-03T14:54:05;17.10;74.50
10538;DHT22;5317;49.048;8.468;2022-11-03T14:56:32;17.10;73.60
10538;DHT22;5317;49.048;8.468;2022-11-03T14:58:59;17.10;73.60
10538;DHT22;5317;49.048;8.468;2022-11-03T15:01:27;17.10;73.90
10538;DHT22;5317;49.048;8.468;2022-11-03T15:03:54;17.10;74.20
10538;DHT22;5317;49.048;8.468;2022-11-03T15:06:21;17.00;74.20
10538;DHT22;5317;49.048;8.468;2022-11-03T15:08:48;17.00;74.80
10538;DHT22;5317;49.048;8.468;2022-11-03T15:11:17;16.90;74.70
10538;DHT22;5317;49.048;8.468;2022-11-03T15:13:44;16.90;74.70
10538;DHT22;5317;49.048;8.468;2022-11-03T15:16:11;16.90;74.90
10538;DHT22;5317;49.048;8.468;2022-11-03T15:18:38;16.80;75.00
10538;DHT22;5317;49.048;8.468;2022-11-03T15:21:06;16.80;75.50
10538;DHT22;5317;49.048;8.468;2022-11-03T15:23:33;16.80;75.60
10538;DHT22;5317;49.048;8.468;2022-11-03T15:26:00;16.70;75.60
10538;DHT22;5317;49.048;8.468;2022-11-03T15:28:29;16.60;75.60
10538;DHT22;5317;49.048;8.468;2022-11-03T15:30:56;16.70;76.90
10538;DHT22;5317;49.048;8.468;2022-11-03T15:33:24;16.60;76.00
10538;DHT22;5317;49.048;8.468;2022-11-03T15:35:51;16.60;76.10
10538;DHT22;5317;49.048;8.468;2022-11-03T15:38:18;16.50;75.80
10538;DHT22;5317;49.048;8.468;2022-11-03T15:40:46;16.50;76.00
10538;DHT22;5317;49.048;8.468;2022-11-03T15:43:13;16.50;76.10
10538;DHT22;5317;49.048;8.468;2022-11-03T15:45:41;16.50;76.00
10538;DHT22;5317;49.048;8.468;2022-11-03T15:48:08;16.50;76.30
10538;DHT22;5317;49.048;8.468;2022-11-03T15:50:36;16.50;76.50
10538;DHT22;5317;49.048;8.468;2022-11-03T15:53:03;16.40;76.30
10538;DHT22;5317;49.048;8.468;2022-11-03T15:55:30;16.30;76.60
10538;DHT22;5317;49.048;8.468;2022-11-03T15:57:57;16.30;76.70
10538;DHT22;5317;49.048;8.468;2022-11-03T16:00:24;16.30;76.70
10538;DHT22;5317;49.048;8.468;2022-11-03T16:02:53;16.30;76.80
10538;DHT22;5317;49.048;8.468;2022-11-03T16:05:20;16.30;76.90
10538;DHT22;5317;49.048;8.468;2022-11-03T16:07:49;16.30;77.00
10538;DHT22;5317;49.048;8.468;2022-11-03T16:10:16;16.30;76.90
10538;DHT22;5317;49.048;8.468;2022-11-03T16:12:43;16.30;77.60
10538;DHT22;5317;49.048;8.468;2022-11-03T16:15:10;16.20;77.00
10538;DHT22;5317;49.048;8.468;2022-11-03T16:17:37;16.20;77.20
10538;DHT22;5317;49.048;8.468;2022-11-03T16:20:07;16.20;77.20
10538;DHT22;5317;49.048;8.468;2022-11-03T16:22:35;16.10;77.30
10538;DHT22;5317;49.048;8.468;2022-11-03T16:25:03;16.00;77.50